createdAt,value
2023-01-29T00:01:57.340Z,102923.66
2023-01-29T00:06:07.135Z,102919.31
2023-01-29T00:10:09.900Z,102913.00
2023-01-29T00:14:11.972Z,102899.72
2023-01-29T00:18:14.247Z,102896.16
2023-01-29T00:22:15.918Z,102897.09
2023-01-29T00:26:18.069Z,102903.16
2023-01-29T00:30:23.156Z,102904.09
2023-01-29T00:34:25.426Z,102889.16
2023-01-29T00:38:27.178Z,102878.56
2023-01-29T00:42:47.315Z,102880.41
2023-01-29T00:46:49.117Z,102874.28
2023-01-29T00:50:50.948Z,102868.06
2023-01-29T00:54:58.282Z,102874.19
2023-01-29T00:59:00.175Z,102861.91
2023-01-29T01:03:07.885Z,102870.78
2023-01-29T01:07:09.730Z,102855.91
2023-01-29T01:11:11.495Z,102861.19
2023-01-29T01:15:13.487Z,102873.44
2023-01-29T01:19:16.141Z,102875.13
2023-01-29T01:23:20.913Z,102881.22
2023-01-29T01:27:22.767Z,102882.94
2023-01-29T01:31:24.609Z,102882.94
2023-01-29T01:35:26.501Z,102880.34
2023-01-29T01:39:28.356Z,102881.22
2023-01-29T01:43:48.877Z,102876.06
2023-01-29T01:48:16.592Z,102886.66
2023-01-29T01:52:20.139Z,102875.13
2023-01-29T01:56:27.071Z,102878.63
2023-01-29T02:00:28.985Z,102881.22
2023-01-29T02:04:49.359Z,102873.19
2023-01-29T02:09:21.926Z,102860.91
2023-01-29T02:13:24.008Z,102852.91
2023-01-29T02:17:25.841Z,102853.75
2023-01-29T02:22:13.409Z,102868.63
2023-01-29T02:26:34.134Z,102871.28
2023-01-29T02:30:40.498Z,102868.53
2023-01-29T02:35:13.046Z,102876.47
2023-01-29T02:39:28.520Z,102879.44
2023-01-29T02:43:37.399Z,102877.63
2023-01-29T02:47:46.866Z,102864.47
2023-01-29T02:52:20.037Z,102863.47
2023-01-29T02:56:28.865Z,102866.13
2023-01-29T03:00:36.913Z,102853.84
2023-01-29T03:04:46.609Z,102849.31
2023-01-29T03:08:58.487Z,102837.84
2023-01-29T03:13:12.856Z,102842.19
2023-01-29T03:17:15.171Z,102847.47
2023-01-29T03:21:41.450Z,102837.75
2023-01-29T03:26:04.276Z,102837.75
2023-01-29T03:30:28.655Z,102821.88
2023-01-29T03:34:57.217Z,102829.03
2023-01-29T03:39:02.371Z,102830.75
2023-01-29T15:51:59.774Z,102164.47
2023-01-29T15:56:01.993Z,102162.88
2023-01-29T16:00:05.560Z,102155.31
2023-01-29T16:04:22.556Z,102162.13
2023-01-29T16:08:26.979Z,102168.94
2023-01-29T16:12:28.834Z,102156.44
2023-01-29T16:16:31.128Z,102153.91
2023-01-29T16:20:45.028Z,102147.94
2023-01-29T16:24:47.966Z,102145.38
2023-01-29T16:28:49.869Z,102135.75
2023-01-29T16:32:51.649Z,102125.25
2023-01-29T16:36:54.914Z,102124.50
2023-01-29T16:41:15.486Z,102124.59
2023-01-29T16:45:28.841Z,102123.75
2023-01-29T16:49:30.548Z,102126.41
2023-01-29T16:53:32.920Z,102120.34
2023-01-29T16:57:34.744Z,102120.25
2023-01-29T17:01:36.768Z,102107.09
2023-01-29T17:05:39.013Z,102102.75
2023-01-29T17:09:41.123Z,102107.09
2023-01-29T17:13:45.679Z,102099.16
2023-01-29T17:17:49.107Z,102089.41
2023-01-29T17:21:51.321Z,102094.63
2023-01-29T17:25:54.006Z,102087.72
2023-01-29T17:29:55.819Z,102085.09
2023-01-29T17:33:57.647Z,102073.66
2023-01-29T17:37:59.412Z,102062.09
2023-01-29T17:42:01.619Z,102059.56
2023-01-29T17:46:03.664Z,102053.63
2023-01-29T17:50:23.143Z,102048.31
2023-01-29T17:54:25.836Z,102034.31
2023-01-29T17:58:27.950Z,102029.03
2023-01-29T18:02:30.069Z,102032.75
2023-01-29T18:06:32.115Z,102036.22
2023-01-29T18:10:33.927Z,102031.88
2023-01-29T18:14:35.767Z,102023.91
2023-01-29T18:18:37.467Z,102020.34
2023-01-29T18:22:39.225Z,102006.28
2023-01-29T18:26:41.013Z,101999.19
2023-01-29T18:30:44.490Z,101995.56
2023-01-29T18:34:46.303Z,101978.75
2023-01-29T18:38:48.050Z,101978.66
2023-01-29T18:42:49.863Z,101968.91
2023-01-29T18:46:51.571Z,101966.28
2023-01-29T18:50:53.387Z,101954.72
2023-01-29T18:54:55.215Z,101945.09
2023-01-29T18:58:57.002Z,101944.13
2023-01-29T19:02:58.863Z,101944.03
2023-01-29T19:07:00.584Z,101952.63
2023-01-29T19:11:05.580Z,101917.28
2023-01-29T19:15:08.356Z,101937.31
2023-01-29T19:19:10.159Z,101928.28
2023-01-29T19:23:12.035Z,101928.94
2023-01-29T19:27:13.795Z,101925.38
2023-01-29T19:31:15.600Z,101907.56
2023-01-29T19:35:17.700Z,101918.16
2023-01-29T19:39:19.754Z,101927.06
2023-01-29T19:43:21.686Z,101927.06
2023-01-29T19:47:23.510Z,101921.75
2023-01-29T19:51:27.642Z,101929.69
2023-01-29T19:55:30.809Z,101933.00
2023-01-29T19:59:32.902Z,101913.50
2023-01-29T20:03:34.957Z,101909.81
2023-01-29T20:07:36.735Z,101905.34
2023-01-29T20:11:38.538Z,101893.72
2023-01-29T20:15:47.514Z,101880.25
2023-01-29T20:19:49.296Z,101896.91
2023-01-29T20:23:51.625Z,101899.34
2023-01-29T20:27:53.408Z,101899.13
2023-01-29T20:31:55.277Z,101901.66
2023-01-29T20:35:59.420Z,101875.06
2023-01-29T20:40:01.358Z,101890.75
2023-01-29T20:44:03.261Z,101885.25
2023-01-29T20:48:05.221Z,101877.09
2023-01-29T20:52:08.695Z,101862.81
2023-01-29T20:56:11.193Z,101859.09
2023-01-29T21:00:15.227Z,101875.81
2023-01-29T21:04:17.360Z,101880.06
2023-01-29T21:08:19.122Z,101879.03
2023-01-29T21:12:21.364Z,101868.22
2023-01-29T21:16:23.687Z,101868.84
2023-01-29T21:20:25.504Z,101879.13
2023-01-29T21:24:27.278Z,101875.44
2023-01-29T21:28:29.296Z,101882.19
2023-01-29T21:32:31.019Z,101845.72
2023-01-29T21:36:34.130Z,101805.75
2023-01-29T21:40:35.966Z,101777.22
2023-01-29T21:44:38.106Z,101770.00
2023-01-29T21:48:40.363Z,101732.78
2023-01-29T21:52:42.136Z,101733.53
2023-01-29T21:56:44.179Z,101749.22
2023-01-29T22:00:48.952Z,101776.34
2023-01-29T22:04:52.371Z,101783.13
2023-01-29T22:08:54.299Z,101760.81
2023-01-29T22:12:56.254Z,101769.41
2023-01-29T22:16:58.126Z,101764.84
2023-01-29T22:21:02.721Z,101757.50
2023-01-29T22:25:05.517Z,101754.75
2023-01-29T22:29:07.320Z,101748.38
2023-01-29T22:33:10.550Z,101738.28
2023-01-29T22:37:12.411Z,101747.41
2023-01-29T22:41:14.670Z,101724.63
2023-01-29T22:45:16.925Z,101728.38
2023-01-29T22:49:19.074Z,101733.72
2023-01-29T22:53:20.819Z,101725.31
2023-01-29T22:57:22.597Z,101734.50
2023-01-29T23:01:28.527Z,101702.06
2023-01-29T23:05:30.300Z,101715.72
2023-01-29T23:09:32.060Z,101696.63
2023-01-29T23:13:33.881Z,101692.78
2023-01-29T23:17:35.856Z,101695.94
2023-01-29T23:21:37.937Z,101699.06
2023-01-29T23:25:58.254Z,101679.28
2023-01-29T23:29:59.941Z,101672.75
2023-01-29T23:34:01.666Z,101675.16
2023-01-29T23:38:03.404Z,101667.94
2023-01-29T23:42:05.423Z,101675.91
2023-01-29T23:46:07.611Z,101656.47
2023-01-29T23:50:10.211Z,101644.97
2023-01-29T23:54:12.023Z,101654.75
2023-01-29T23:58:13.725Z,101660.91
